Time;durP1;ratioP1;P1;durP2;ratioP2;P2;SDS_P1;SDS_P2;PMS_P1;PMS_P2;Temp;Humidity;BMP_temperature;BMP_pressure;BME280_temperature;BME280_humidity;BME280_pressure;Samples;Min_cycle;Max_cycle;Signal;HPM_P1;HPM_P2
2021/04/14 00:00:25;;;;;;;10.70;4.30;;;;;;;1.48;100.00;98835.44;5054427;28;20055;-78
2021/04/14 00:02:52;;;;;;;9.95;4.28;;;;;;;1.47;100.00;98831.94;5075566;28;20115;-78
2021/04/14 00:05:22;;;;;;;13.60;4.35;;;;;;;1.42;100.00;98839.03;5051256;28;20123;-78
2021/04/14 00:07:49;;;;;;;10.48;4.43;;;;;;;1.42;100.00;98831.03;5057299;28;20048;-78
2021/04/14 00:10:22;;;;;;;11.23;3.95;;;;;;;1.46;100.00;98841.00;5057199;28;20455;-77
2021/04/14 00:12:48;;;;;;;13.63;4.03;;;;;;;1.47;100.00;98837.28;5058032;28;20079;-78
2021/04/14 00:15:23;;;;;;;8.07;3.63;;;;;;;1.47;100.00;98829.28;5059182;28;20052;-77
2021/04/14 00:17:49;;;;;;;11.50;4.03;;;;;;;1.52;100.00;98840.13;5079735;28;20044;-78
2021/04/14 00:20:18;;;;;;;10.27;3.42;;;;;;;1.52;100.00;98847.31;5065556;28;20041;-79
2021/04/14 00:22:45;;;;;;;13.70;4.07;;;;;;;1.49;100.00;98835.22;5082988;28;20040;-79
2021/04/14 00:25:16;;;;;;;9.13;4.00;;;;;;;1.51;100.00;98840.31;5084106;28;20296;-78
2021/04/14 00:27:42;;;;;;;12.35;3.90;;;;;;;1.51;100.00;98840.31;5063950;28;20044;-79
2021/04/14 00:30:10;;;;;;;9.60;3.95;;;;;;;1.53;100.00;98827.56;5065213;28;20049;-79
2021/04/14 00:32:36;;;;;;;14.80;3.88;;;;;;;1.55;100.00;98833.50;5058991;28;20048;-77
2021/04/14 00:35:04;;;;;;;10.65;3.90;;;;;;;1.50;100.00;98831.50;5075153;28;20086;-78
2021/04/14 00:37:31;;;;;;;13.30;4.65;;;;;;;1.49;100.00;98847.75;5074049;28;20047;-78
2021/04/14 00:39:57;;;;;;;11.20;3.70;;;;;;;1.53;100.00;98828.38;5074708;28;20036;-78
2021/04/14 00:42:24;;;;;;;10.05;3.80;;;;;;;1.48;100.00;98838.94;5074472;28;20037;-78
2021/04/14 00:44:51;;;;;;;8.73;3.95;;;;;;;1.47;100.00;98839.94;5039521;28;20044;-78
2021/04/14 00:47:17;;;;;;;10.40;4.20;;;;;;;1.47;100.00;98837.28;5077121;28;20077;-78
2021/04/14 00:49:47;;;;;;;10.80;4.25;;;;;;;1.49;100.00;98837.91;5045744;28;20052;-79
2021/04/14 00:52:15;;;;;;;11.70;4.70;;;;;;;1.44;100.00;98837.78;5047793;28;20059;-78
2021/04/14 00:54:41;;;;;;;8.88;3.92;;;;;;;1.44;100.00;98826.28;5074680;28;20040;-78
2021/04/14 00:57:07;;;;;;;9.73;4.35;;;;;;;1.44;100.00;98832.44;5056937;28;20048;-78
2021/04/14 00:59:35;;;;;;;15.35;4.13;;;;;;;1.42;100.00;98833.69;5077050;28;20049;-78
2021/04/14 01:02:03;;;;;;;9.07;4.18;;;;;;;1.43;100.00;98832.63;5074850;28;20067;-78
2021/04/14 01:04:29;;;;;;;10.63;4.32;;;;;;;1.43;100.00;98829.97;5073460;28;20439;-78
2021/04/14 01:06:55;;;;;;;9.25;4.30;;;;;;;1.47;100.00;98829.28;5055547;28;20396;-77
2021/04/14 01:09:21;;;;;;;12.43;4.28;;;;;;;1.45;100.00;98825.22;5039088;28;20304;-79
2021/04/14 01:11:48;;;;;;;14.82;4.93;;;;;;;1.43;100.00;98837.97;5078645;28;20102;-78
2021/04/14 01:14:14;;;;;;;12.50;4.88;;;;;;;1.42;100.00;98833.69;5059976;28;20272;-78
2021/04/14 01:16:40;;;;;;;10.68;4.78;;;;;;;1.42;100.00;98837.16;5076425;28;20117;-77
2021/04/14 01:19:07;;;;;;;12.57;4.65;;;;;;;1.38;100.00;98824.50;5077137;28;20506;-78
2021/04/14 01:21:40;;;;;;;7.63;4.20;;;;;;;1.40;100.00;98836.56;5059817;28;20051;-77
2021/04/14 01:24:14;;;;;;;14.85;4.88;;;;;;;1.37;100.00;98834.34;5076355;28;20040;-78
2021/04/14 01:26:40;;;;;;;14.25;4.65;;;;;;;1.36;100.00;98830.06;5075444;28;20320;-77
2021/04/14 01:29:09;;;;;;;13.93;4.93;;;;;;;1.40;100.00;98827.75;5059134;28;20053;-77
2021/04/14 01:31:35;;;;;;;17.58;5.63;;;;;;;1.29;100.00;98824.03;5073258;28;20043;-77
2021/04/14 01:34:12;;;;;;;11.20;5.50;;;;;;;1.34;100.00;98842.00;5072125;28;20044;-78
2021/04/14 01:36:39;;;;;;;13.73;5.05;;;;;;;1.34;100.00;98826.00;5082380;28;20511;-77
2021/04/14 01:39:08;;;;;;;16.80;6.22;;;;;;;1.33;100.00;98821.69;5073460;28;20555;-77
2021/04/14 01:41:34;;;;;;;12.50;5.15;;;;;;;1.31;100.00;98823.78;5073673;28;20272;-77
2021/04/14 01:44:02;;;;;;;13.05;5.63;;;;;;;1.30;100.00;98830.16;5039242;28;20511;-77
2021/04/14 01:46:29;;;;;;;14.98;5.70;;;;;;;1.30;100.00;98840.81;5072964;28;20052;-77
2021/04/14 01:48:55;;;;;;;14.60;5.38;;;;;;;1.24;100.00;98819.34;5073051;28;20128;-77
2021/04/14 01:51:21;;;;;;;13.75;5.72;;;;;;;1.27;100.00;98821.56;5073118;28;20041;-78
2021/04/14 01:53:47;;;;;;;18.45;5.93;;;;;;;1.32;100.00;98822.75;5055623;28;20052;-78
2021/04/14 01:56:15;;;;;;;10.52;5.20;;;;;;;1.37;100.00;98830.91;5072665;28;20040;-77
2021/04/14 01:58:43;;;;;;;15.45;5.60;;;;;;;1.36;100.00;98830.06;5072416;28;20048;-77
2021/04/14 02:01:10;;;;;;;15.32;6.07;;;;;;;1.26;100.00;98830.59;5055255;28;20052;-78
2021/04/14 02:03:40;;;;;;;18.38;6.05;;;;;;;1.26;100.00;98840.47;5072140;28;20094;-78
2021/04/14 02:06:10;;;;;;;17.00;6.32;;;;;;;1.27;100.00;98842.09;5066002;28;20040;-78
2021/04/14 02:08:39;;;;;;;15.70;5.15;;;;;;;1.23;100.00;98832.91;5038450;28;20049;-78
2021/04/14 02:11:07;;;;;;;16.15;5.65;;;;;;;1.26;100.00;98837.81;5057154;23;20065;-76
2021/04/14 02:13:36;;;;;;;14.95;5.25;;;;;;;1.27;100.00;98834.91;5039528;28;20053;-77
2021/04/14 02:16:13;;;;;;;11.60;4.93;;;;;;;1.25;100.00;98839.66;5038717;28;20044;-76
2021/04/14 02:18:40;;;;;;;11.73;5.55;;;;;;;1.24;100.00;98832.69;5043467;28;20033;-75
2021/04/14 02:21:09;;;;;;;19.60;5.50;;;;;;;1.25;100.00;98833.50;5045195;28;20133;-77
2021/04/14 02:23:40;;;;;;;19.02;5.50;;;;;;;1.22;100.00;98833.94;5042325;28;20120;-75
2021/04/14 02:26:09;;;;;;;23.80;6.80;;;;;;;1.21;100.00;98840.34;5043666;28;20037;-75
2021/04/14 02:28:36;;;;;;;12.65;5.00;;;;;;;1.15;100.00;98843.91;5026929;28;20076;-76
2021/04/14 02:31:04;;;;;;;14.60;5.35;;;;;;;1.10;100.00;98841.91;5046254;28;20049;-76
2021/04/14 02:33:31;;;;;;;14.30;5.15;;;;;;;1.06;100.00;98837.22;5045907;28;20045;-77
2021/04/14 02:35:57;;;;;;;15.85;5.22;;;;;;;1.06;100.00;98830.03;5023369;28;20049;-77
2021/04/14 02:38:25;;;;;;;14.63;5.10;;;;;;;1.08;100.00;98832.50;5038739;28;20079;-77
2021/04/14 02:40:51;;;;;;;16.92;5.78;;;;;;;1.10;100.00;98839.25;5038787;28;20137;-76
2021/04/14 02:43:21;;;;;;;14.43;4.93;;;;;;;1.14;100.00;98839.59;5039371;28;20041;-75
2021/04/14 02:45:47;;;;;;;15.27;5.57;;;;;;;1.15;100.00;98834.03;5041963;28;20421;-76
2021/04/14 02:48:13;;;;;;;12.30;5.15;;;;;;;1.21;100.00;98833.13;5042293;28;20045;-76
2021/04/14 02:50:39;;;;;;;15.02;5.18;;;;;;;1.20;100.00;98828.03;5040275;28;20053;-76
2021/04/14 02:53:07;;;;;;;11.40;5.30;;;;;;;1.19;100.00;98829.06;5043006;28;20065;-76
2021/04/14 02:55:34;;;;;;;14.38;5.30;;;;;;;1.16;100.00;98832.19;5042309;28;20038;-76
2021/04/14 02:58:00;;;;;;;18.38;5.15;;;;;;;1.16;100.00;98827.66;5022658;28;20038;-76
2021/04/14 03:00:28;;;;;;;18.05;5.68;;;;;;;1.12;100.00;98831.00;5021274;28;20055;-77
2021/04/14 03:02:55;;;;;;;17.00;5.88;;;;;;;1.07;100.00;98826.34;5040572;28;20305;-74
2021/04/14 03:05:27;;;;;;;16.55;5.60;;;;;;;1.05;100.00;98839.09;5023248;28;20077;-75
2021/04/14 03:07:54;;;;;;;14.55;7.05;;;;;;;0.98;100.00;98835.69;5037797;28;20046;-75
2021/04/14 03:10:20;;;;;;;18.45;6.15;;;;;;;0.87;100.00;98819.63;5039729;28;20037;-74
2021/04/14 03:12:47;;;;;;;15.10;6.13;;;;;;;0.97;100.00;98827.91;5039979;28;20055;-76
2021/04/14 03:15:14;;;;;;;13.05;5.63;;;;;;;0.95;100.00;98820.16;5042170;28;20056;-76
2021/04/14 03:17:41;;;;;;;16.23;5.97;;;;;;;1.01;100.00;98823.75;5043289;28;20049;-75
2021/04/14 03:20:10;;;;;;;18.23;6.78;;;;;;;1.02;100.00;98825.41;5040046;28;20071;-76
2021/04/14 03:22:36;;;;;;;19.48;6.13;;;;;;;1.03;100.00;98830.50;5024455;28;20041;-77
2021/04/14 03:25:03;;;;;;;19.70;6.07;;;;;;;1.06;100.00;98839.91;5042241;28;20041;-77
2021/04/14 03:27:30;;;;;;;18.77;6.75;;;;;;;1.08;100.00;98825.31;5041379;28;20041;-76
2021/04/14 03:29:56;;;;;;;21.42;6.68;;;;;;;0.99;100.00;98816.00;5056742;28;20054;-76
2021/04/14 03:32:22;;;;;;;15.40;6.55;;;;;;;1.06;100.00;98830.03;5053686;28;20128;-76
2021/04/14 03:34:48;;;;;;;16.08;6.25;;;;;;;1.07;100.00;98826.34;5036131;28;20052;-75
2021/04/14 03:37:14;;;;;;;18.13;6.78;;;;;;;1.08;100.00;98832.50;5022134;28;20041;-75
2021/04/14 03:39:42;;;;;;;15.07;6.68;;;;;;;1.06;100.00;98837.22;5022895;28;20041;-75
2021/04/14 03:42:09;;;;;;;15.98;6.32;;;;;;;1.08;100.00;98836.00;5034088;28;20048;-76
2021/04/14 03:44:37;;;;;;;17.33;6.68;;;;;;;1.14;100.00;98832.41;5018340;28;20068;-76
2021/04/14 03:47:04;;;;;;;21.27;6.90;;;;;;;1.03;100.00;98827.81;5035405;28;20398;-77
2021/04/14 03:49:32;;;;;;;21.75;7.07;;;;;;;1.12;100.00;98826.50;5036590;28;20056;-76
2021/04/14 03:51:58;;;;;;;25.20;6.78;;;;;;;1.10;100.00;98831.25;5025209;28;20042;-76
2021/04/14 03:54:25;;;;;;;19.35;6.90;;;;;;;1.05;100.00;98823.09;5015997;28;20056;-75
2021/04/14 03:56:51;;;;;;;26.02;7.43;;;;;;;1.03;100.00;98835.03;5023668;28;20055;-76
2021/04/14 03:59:17;;;;;;;14.38;6.53;;;;;;;1.09;100.00;98834.94;5041054;28;20053;-77
2021/04/14 04:01:43;;;;;;;20.73;6.90;;;;;;;1.05;100.00;98841.78;5043533;28;20045;-76
2021/04/14 04:04:10;;;;;;;24.58;7.90;;;;;;;0.98;100.00;98829.56;5021853;28;20080;-78
2021/04/14 04:06:36;;;;;;;22.52;8.23;;;;;;;0.91;100.00;98842.94;5026883;28;20493;-77
2021/04/14 04:09:04;;;;;;;27.33;8.93;;;;;;;0.94;100.00;98852.34;5058930;28;20404;-77
2021/04/14 04:11:30;;;;;;;17.40;8.48;;;;;;;0.86;100.00;98848.13;5040275;28;20120;-77
2021/04/14 04:13:58;;;;;;;25.77;9.20;;;;;;;0.88;100.00;98846.06;5044612;28;20037;-75
2021/04/14 04:16:24;;;;;;;27.42;9.35;;;;;;;0.88;100.00;98850.59;5046270;28;20053;-78
2021/04/14 04:18:51;;;;;;;25.33;9.52;;;;;;;0.86;100.00;98852.66;5047101;28;20049;-78
2021/04/14 04:21:18;;;;;;;24.25;10.80;;;;;;;0.90;100.00;98853.84;5046916;28;20045;-77
2021/04/14 04:23:44;;;;;;;27.42;10.40;;;;;;;0.95;100.00;98856.66;5047159;28;20124;-78
2021/04/14 04:26:11;;;;;;;20.00;9.32;;;;;;;1.03;100.00;98846.50;5030329;28;20440;-78
2021/04/14 04:28:39;;;;;;;19.90;10.50;;;;;;;1.03;100.00;98851.03;5030631;28;20034;-78
2021/04/14 04:31:05;;;;;;;32.60;11.32;;;;;;;1.12;100.00;98852.34;5044952;28;20033;-78
2021/04/14 04:33:32;;;;;;;23.00;10.98;;;;;;;1.15;100.00;98852.72;5024324;28;20108;-79
2021/04/14 04:35:58;;;;;;;29.42;12.68;;;;;;;1.17;100.00;98855.97;5015487;28;20045;-80
2021/04/14 04:38:25;;;;;;;27.15;10.95;;;;;;;1.08;100.00;98860.00;5037416;28;20063;-76
2021/04/14 04:40:52;;;;;;;29.73;11.23;;;;;;;1.11;100.00;98856.84;5031879;28;20046;-76
2021/04/14 04:43:19;;;;;;;28.25;9.55;;;;;;;1.15;100.00;98863.38;5031125;28;20045;-76
2021/04/14 04:45:45;;;;;;;27.38;9.80;;;;;;;1.17;100.00;98853.28;5030428;28;20296;-77
2021/04/14 04:48:11;;;;;;;23.58;9.60;;;;;;;1.27;100.00;98856.25;5016210;28;20060;-76
2021/04/14 04:50:39;;;;;;;25.85;10.15;;;;;;;1.26;100.00;98862.59;5016116;28;20061;-76
2021/04/14 04:53:12;;;;;;;29.75;9.23;;;;;;;1.22;100.00;98864.09;5033499;28;20481;-77
2021/04/14 04:55:41;;;;;;;22.33;8.68;;;;;;;1.17;100.00;98853.28;5031215;28;20049;-74
2021/04/14 04:58:07;;;;;;;20.13;8.75;;;;;;;1.26;100.00;98849.25;5018085;28;20033;-77
2021/04/14 05:00:34;;;;;;;22.33;9.73;;;;;;;1.29;100.00;98849.88;5056264;28;20047;-76
2021/04/14 05:03:00;;;;;;;25.00;8.77;;;;;;;1.29;100.00;98853.38;4998002;28;20042;-75
2021/04/14 05:05:28;;;;;;;25.65;8.93;;;;;;;1.30;100.00;98848.81;5028289;28;20045;-76
2021/04/14 05:07:55;;;;;;;21.83;7.93;;;;;;;1.37;100.00;98857.56;5034712;28;20045;-76
2021/04/14 05:10:22;;;;;;;17.60;7.97;;;;;;;1.80;100.00;98858.19;5026181;28;20053;-77
2021/04/14 05:12:53;;;;;;;21.55;8.98;;;;;;;1.46;100.00;98853.53;5027716;28;20044;-77
2021/04/14 05:15:22;;;;;;;17.60;8.25;;;;;;;1.35;100.00;98863.13;5048362;28;20049;-77
2021/04/14 05:17:49;;;;;;;32.10;10.90;;;;;;;1.33;100.00;98859.03;5016366;28;20132;-77
2021/04/14 05:20:16;;;;;;;24.48;10.18;;;;;;;1.29;100.00;98865.88;5032051;28;20095;-72
2021/04/14 05:22:44;;;;;;;27.63;11.13;;;;;;;1.21;100.00;98862.47;5022935;28;20041;-73
2021/04/14 05:25:14;;;;;;;28.65;9.63;;;;;;;1.12;100.00;98861.16;5030273;28;20267;-72
2021/04/14 05:27:41;;;;;;;31.33;10.02;;;;;;;1.16;100.00;98880.19;5026332;28;20049;-75
2021/04/14 05:30:08;;;;;;;27.65;10.57;;;;;;;1.24;100.00;98885.22;5036937;28;20053;-76
2021/04/14 05:32:34;;;;;;;28.35;9.60;;;;;;;1.12;100.00;98879.81;5067292;28;20093;-77
2021/04/14 05:35:00;;;;;;;35.55;10.85;;;;;;;1.17;100.00;98881.81;5062229;28;20055;-77
2021/04/14 05:37:27;;;;;;;27.85;11.13;;;;;;;1.29;100.00;98880.03;5020715;28;20315;-77
2021/04/14 05:39:54;;;;;;;28.70;11.05;;;;;;;1.36;100.00;98879.94;5032915;28;20045;-76
2021/04/14 05:42:20;;;;;;;29.15;10.57;;;;;;;1.34;100.00;98880.19;5034374;28;20046;-75
2021/04/14 05:44:50;;;;;;;25.17;9.88;;;;;;;1.38;100.00;98878.69;5032526;28;20153;-76
2021/04/14 05:47:16;;;;;;;31.45;11.57;;;;;;;1.33;100.00;98886.53;5032240;28;20497;-76
2021/04/14 05:49:42;;;;;;;27.20;11.38;;;;;;;1.27;100.00;98888.25;5015579;28;20049;-77
2021/04/14 05:52:09;;;;;;;33.13;11.35;;;;;;;1.38;100.00;98901.88;5034079;28;20122;-78
2021/04/14 05:54:35;;;;;;;33.42;12.23;;;;;;;1.36;100.00;98893.28;5037404;28;20236;-76
2021/04/14 05:57:02;;;;;;;33.47;11.88;;;;;;;1.63;100.00;98892.69;5034745;28;20041;-76
2021/04/14 05:59:28;;;;;;;36.97;10.73;;;;;;;1.64;100.00;98882.84;5034597;28;20137;-76
2021/04/14 06:01:54;;;;;;;38.65;11.90;;;;;;;1.53;100.00;98883.59;5036129;28;20041;-76
2021/04/14 06:04:20;;;;;;;37.75;11.32;;;;;;;1.70;100.00;98887.28;5037843;28;20054;-78
2021/04/14 06:06:47;;;;;;;46.25;11.85;;;;;;;1.67;100.00;98883.22;5054942;28;20056;-77
2021/04/14 06:09:13;;;;;;;33.50;11.27;;;;;;;1.72;100.00;98894.03;5038619;28;20051;-78
2021/04/14 06:11:40;;;;;;;32.78;11.60;;;;;;;1.55;100.00;98894.88;5041734;28;20045;-75
2021/04/14 06:14:06;;;;;;;44.00;12.20;;;;;;;1.75;100.00;98893.56;5018329;28;20037;-77
2021/04/14 06:16:32;;;;;;;29.33;10.30;;;;;;;1.64;100.00;98902.34;5035607;28;20045;-77
2021/04/14 06:18:59;;;;;;;33.47;10.13;;;;;;;1.51;100.00;98881.16;5037424;28;20559;-78
2021/04/14 06:21:26;;;;;;;33.30;9.35;;;;;;;1.60;100.00;98889.69;5030306;28;20048;-77
2021/04/14 06:23:53;;;;;;;36.88;11.13;;;;;;;1.53;100.00;98899.59;5041460;28;20060;-76
2021/04/14 06:26:44;;;;;;;35.50;10.75;;;;;;;1.66;100.00;98900.25;5068009;28;20041;-75
2021/04/14 06:29:10;;;;;;;35.58;10.98;;;;;;;1.52;100.00;98898.00;5065136;28;20045;-76
2021/04/14 06:31:40;;;;;;;34.05;10.07;;;;;;;1.59;100.00;98906.72;5046744;28;20072;-78
2021/04/14 06:34:18;;;;;;;31.55;9.85;;;;;;;1.64;100.00;98896.19;5057889;28;20040;-77
2021/04/14 06:36:48;;;;;;;33.85;9.40;;;;;;;1.80;100.00;98887.53;5020066;28;20433;-77
2021/04/14 06:39:16;;;;;;;30.83;9.15;;;;;;;1.87;100.00;98891.75;5014353;28;20041;-78
2021/04/14 06:42:01;;;;;;;26.48;8.68;;;;;;;1.99;100.00;98885.63;5034707;28;20124;-77
2021/04/14 06:44:39;;;;;;;38.05;9.68;;;;;;;2.11;100.00;98889.13;5037954;28;20041;-77
2021/04/14 06:47:20;;;;;;;43.13;10.25;;;;;;;2.08;100.00;98886.91;5043604;28;20267;-77
2021/04/14 06:49:57;;;;;;;31.80;9.52;;;;;;;2.19;100.00;98884.25;5035267;28;20081;-77
2021/04/14 06:52:34;;;;;;;33.22;8.90;;;;;;;2.28;100.00;98885.53;5054445;28;20037;-76
2021/04/14 06:55:11;;;;;;;26.17;9.60;;;;;;;2.14;100.00;98889.47;5034947;28;20041;-76
2021/04/14 06:57:42;;;;;;;32.60;10.07;;;;;;;2.15;100.00;98885.75;5045310;28;20095;-75
2021/04/14 07:00:10;;;;;;;35.40;9.95;;;;;;;2.05;100.00;98888.19;5038926;28;20496;-77
2021/04/14 07:02:45;;;;;;;36.42;10.57;;;;;;;2.15;100.00;98899.09;5035874;28;20139;-77
2021/04/14 07:05:23;;;;;;;31.23;7.95;;;;;;;2.42;100.00;98889.63;5055193;28;20520;-75
2021/04/14 07:07:53;;;;;;;32.75;8.18;;;;;;;2.62;100.00;98880.44;5023992;28;20046;-78
2021/04/14 07:10:25;;;;;;;26.98;7.60;;;;;;;2.79;100.00;98881.34;5040243;28;20271;-77
2021/04/14 07:12:54;;;;;;;30.58;6.57;;;;;;;3.01;100.00;98883.19;5035847;28;20045;-74
2021/04/14 07:15:21;;;;;;;31.42;7.55;;;;;;;3.39;100.00;98885.31;5033411;28;20099;-77
2021/04/14 07:18:09;;;;;;;25.23;7.82;;;;;;;3.40;100.00;98875.41;5032896;28;20042;-77
2021/04/14 07:20:59;;;;;;;33.30;8.05;;;;;;;3.34;100.00;98887.06;5048321;28;20046;-76
2021/04/14 07:23:34;;;;;;;25.98;7.85;;;;;;;3.31;100.00;98888.34;5032851;28;20325;-78
2021/04/14 07:26:16;;;;;;;23.05;7.93;;;;;;;3.08;100.00;98889.22;5020010;28;20046;-77
2021/04/14 07:29:01;;;;;;;28.13;7.50;;;;;;;3.27;100.00;98883.72;5034849;28;20045;-76
2021/04/14 07:31:51;;;;;;;23.67;7.32;;;;;;;3.09;100.00;98890.03;5016339;28;20357;-77
2021/04/14 07:34:34;;;;;;;29.15;7.57;;;;;;;3.14;100.00;98884.78;5032194;28;20076;-76
2021/04/14 07:37:12;;;;;;;24.88;8.57;;;;;;;3.41;100.00;98885.06;5013940;28;20524;-77
2021/04/14 07:40:10;;;;;;;27.98;8.77;;;;;;;3.61;100.00;98885.47;5045738;28;20092;-76
2021/04/14 07:43:14;;;;;;;25.48;7.47;;;;;;;3.58;100.00;98883.25;5035401;28;20045;-78
2021/04/14 07:45:41;;;;;;;26.20;6.88;;;;;;;3.44;100.00;98877.38;5033577;28;20472;-75
2021/04/14 07:48:18;;;;;;;24.13;7.43;;;;;;;4.11;100.00;98880.19;5043476;28;20056;-75
2021/04/14 07:50:49;;;;;;;27.30;6.80;;;;;;;4.23;100.00;98881.72;5053729;28;20039;-74
2021/04/14 07:53:24;;;;;;;25.98;7.30;;;;;;;4.42;100.00;98882.28;5053380;28;20034;-75
2021/04/14 07:56:18;;;;;;;20.95;7.00;;;;;;;4.18;100.00;98886.22;5051067;28;20241;-76
2021/04/14 07:58:46;;;;;;;21.08;6.28;;;;;;;3.83;100.00;98880.22;5034484;28;20045;-76
2021/04/14 08:01:49;;;;;;;21.58;6.32;;;;;;;3.79;100.00;98866.53;5033346;28;20048;-77
2021/04/14 08:04:19;;;;;;;21.27;6.55;;;;;;;3.96;100.00;98874.56;5031616;28;20108;-77
2021/04/14 08:06:49;;;;;;;18.42;4.65;;;;;;;4.01;100.00;98872.78;5032796;28;20095;-76
2021/04/14 08:09:20;;;;;;;14.00;4.38;;;;;;;3.96;100.00;98877.25;5043144;28;20052;-77
2021/04/14 08:11:49;;;;;;;20.73;5.22;;;;;;;4.40;100.00;98871.00;5057128;22;20045;-78
2021/04/14 08:14:19;;;;;;;24.63;5.15;;;;;;;5.11;100.00;98880.88;5047047;28;20045;-79
2021/04/14 08:16:49;;;;;;;18.90;4.18;;;;;;;5.17;100.00;98873.69;5074261;28;20083;-78
2021/04/14 08:19:33;;;;;;;17.50;3.80;;;;;;;4.33;100.00;98867.69;5048355;28;20466;-79
2021/04/14 08:22:05;;;;;;;16.80;4.00;;;;;;;4.64;100.00;98872.47;5048469;28;20107;-78
2021/04/14 08:24:47;;;;;;;17.15;3.17;;;;;;;4.06;100.00;98859.47;5035792;28;20049;-78
2021/04/14 08:27:34;;;;;;;22.55;3.45;;;;;;;4.06;100.00;98867.50;5052382;28;20041;-78
2021/04/14 08:30:01;;;;;;;15.13;3.40;;;;;;;4.13;100.00;98872.72;5053179;28;20296;-78
2021/04/14 08:32:35;;;;;;;12.45;3.13;;;;;;;4.50;100.00;98870.34;5053304;28;20056;-78
2021/04/14 08:35:10;;;;;;;18.50;3.42;;;;;;;5.02;100.00;98858.22;5052995;28;20033;-78
2021/04/14 08:37:36;;;;;;;15.65;2.95;;;;;;;5.39;100.00;98861.09;5052297;28;20071;-78
2021/04/14 08:40:20;;;;;;;15.32;2.75;;;;;;;5.20;100.00;98852.53;5052011;28;20045;-78
2021/04/14 08:42:46;;;;;;;13.80;2.53;;;;;;;5.15;100.00;98862.41;5052443;28;20487;-79
2021/04/14 08:45:26;;;;;;;17.33;2.45;;;;;;;5.08;100.00;98851.88;5035576;28;20092;-78
2021/04/14 08:48:04;;;;;;;13.68;2.40;;;;;;;4.98;100.00;98857.09;5053126;28;20426;-79
2021/04/14 08:50:34;;;;;;;13.10;2.70;;;;;;;5.34;100.00;98852.97;5051172;28;20044;-78
2021/04/14 08:53:07;;;;;;;13.93;2.95;;;;;;;5.02;100.00;98860.91;5050595;28;20044;-79
2021/04/14 08:55:37;;;;;;;17.92;2.63;;;;;;;4.95;100.00;98858.41;5051545;28;20037;-78
2021/04/14 08:58:04;;;;;;;17.85;2.88;;;;;;;5.01;100.00;98860.09;5051574;28;20052;-78
2021/04/14 09:00:30;;;;;;;16.23;3.00;;;;;;;4.77;100.00;98855.19;5050130;28;20152;-78
2021/04/14 09:03:03;;;;;;;21.05;3.00;;;;;;;4.51;100.00;98848.66;5044365;28;20025;-77
2021/04/14 09:05:30;;;;;;;14.95;2.40;;;;;;;4.80;100.00;98850.13;5051884;28;20063;-77
2021/04/14 09:07:59;;;;;;;15.18;2.50;;;;;;;5.83;100.00;98848.41;5066886;28;20045;-78
2021/04/14 09:10:41;;;;;;;13.98;2.72;;;;;;;6.67;100.00;98836.72;5051905;28;20441;-77
2021/04/14 09:13:10;;;;;;;15.13;2.60;;;;;;;6.19;100.00;98839.59;5052369;28;20040;-77
2021/04/14 09:15:52;;;;;;;11.50;2.55;;;;;;;5.61;100.00;98835.81;5050703;28;20098;-77
2021/04/14 09:18:38;;;;;;;14.77;2.33;;;;;;;5.23;100.00;98835.13;5051498;28;20064;-77
2021/04/14 09:21:06;;;;;;;;;;;;;;;4.97;100.00;98844.75;5054263;28;20037;-76
2021/04/14 09:23:35;;;;;;;14.13;2.50;;;;;;;4.85;100.00;98836.78;5052495;28;19920;-77
2021/04/14 09:26:11;;;;;;;12.80;2.10;;;;;;;4.88;100.00;98833.63;5051358;28;20056;-77
2021/04/14 09:28:45;;;;;;;23.45;4.60;;;;;;;5.48;100.00;98828.16;5052445;28;20049;-77
2021/04/14 09:31:39;;;;;;;19.00;4.68;;;;;;;6.37;100.00;98824.94;5051839;28;20041;-77
2021/04/14 09:34:22;;;;;;;8.00;2.13;;;;;;;7.14;100.00;98839.38;5051183;28;20143;-78
2021/04/14 09:37:22;;;;;;;8.68;1.83;;;;;;;6.42;98.61;98823.09;5034787;28;20048;-77
2021/04/14 09:39:50;;;;;;;27.02;3.03;;;;;;;5.48;100.00;98824.66;5035088;28;20103;-78
2021/04/14 09:42:22;;;;;;;18.20;2.63;;;;;;;5.35;100.00;98825.88;5050524;28;20029;-77
2021/04/14 09:45:30;;;;;;;15.43;1.75;;;;;;;5.25;100.00;98828.44;5052394;28;20079;-77
2021/04/14 09:47:59;;;;;;;13.40;2.00;;;;;;;5.48;100.00;98827.34;5034834;28;20045;-77
2021/04/14 09:50:28;;;;;;;9.50;1.85;;;;;;;5.41;100.00;98816.81;5051173;28;20064;-78
2021/04/14 09:53:39;;;;;;;6.03;1.60;;;;;;;5.89;100.00;98813.28;5052657;28;20045;-78
2021/04/14 09:56:10;;;;;;;8.45;1.80;;;;;;;6.21;100.00;98819.47;5051414;28;20060;-78
2021/04/14 09:58:57;;;;;;;10.20;1.90;;;;;;;7.52;100.00;98816.59;5050425;28;20133;-79
2021/04/14 10:01:29;;;;;;;8.07;2.28;;;;;;;8.24;99.05;98802.91;5050351;28;20099;-80
2021/04/14 10:04:01;;;;;;;11.98;1.77;;;;;;;8.13;86.62;98801.28;5049920;28;20091;-77
2021/04/14 10:06:28;;;;;;;9.95;1.88;;;;;;;7.29;100.00;98798.22;5052137;28;20550;-77
2021/04/14 10:08:58;;;;;;;11.70;1.80;;;;;;;6.07;100.00;98815.56;5052488;28;20489;-77
2021/04/14 10:11:33;;;;;;;10.55;1.95;;;;;;;5.33;100.00;98819.94;5053667;28;20660;-77
2021/04/14 10:14:12;;;;;;;13.52;1.60;;;;;;;5.32;100.00;98817.50;5029440;28;20038;-77
2021/04/14 10:16:40;;;;;;;10.30;2.15;;;;;;;4.95;100.00;98818.16;5037139;28;20049;-77
2021/04/14 10:19:12;;;;;;;9.30;1.63;;;;;;;4.98;100.00;98814.97;5034227;28;20202;-77
2021/04/14 10:21:42;;;;;;;10.90;2.22;;;;;;;5.28;100.00;98811.03;5045982;28;20040;-77
2021/04/14 10:24:16;;;;;;;5.82;1.25;;;;;;;5.50;100.00;98815.28;5050305;28;20086;-77
2021/04/14 10:26:54;;;;;;;6.78;1.17;;;;;;;5.72;100.00;98809.88;5048682;28;20607;-77
2021/04/14 10:29:40;;;;;;;7.70;1.60;;;;;;;6.50;100.00;98806.50;5085165;28;20080;-77
2021/04/14 10:32:12;;;;;;;10.40;1.80;;;;;;;6.76;100.00;98812.81;5046272;28;20037;-77
2021/04/14 10:34:46;;;;;;;4.90;1.50;;;;;;;7.30;94.92;98808.72;5045238;28;20103;-77
2021/04/14 10:37:24;;;;;;;6.90;1.50;;;;;;;7.76;71.34;98793.47;5030526;28;20056;-77
2021/04/14 10:39:52;;;;;;;11.07;1.63;;;;;;;10.01;66.32;98795.69;5063116;28;20507;-78
2021/04/14 10:42:22;;;;;;;8.00;1.65;;;;;;;11.24;55.23;98789.59;5047200;28;20040;-78
2021/04/14 10:44:48;;;;;;;7.57;1.40;;;;;;;13.17;50.21;98785.31;5030131;28;20050;-78
2021/04/14 10:47:32;;;;;;;12.02;1.67;;;;;;;13.25;49.88;98772.94;5031659;28;20045;-78
2021/04/14 10:50:06;;;;;;;4.78;1.50;;;;;;;12.30;48.69;98768.22;5030301;28;20065;-78
2021/04/14 10:52:34;;;;;;;10.93;1.75;;;;;;;10.53;56.22;98769.81;5029923;28;20038;-77
2021/04/14 10:55:10;;;;;;;11.43;1.75;;;;;;;9.27;63.15;98768.06;5063067;28;20046;-77
2021/04/14 10:57:39;;;;;;;12.48;2.13;;;;;;;8.05;73.16;98762.19;5031446;28;20041;-77
2021/04/14 11:00:23;;;;;;;9.57;2.30;;;;;;;7.40;85.00;98762.16;5049059;28;20056;-77
2021/04/14 11:02:50;;;;;;;11.60;2.95;;;;;;;7.50;79.00;98764.88;5059489;28;20037;-78
2021/04/14 11:05:20;;;;;;;11.30;2.63;;;;;;;7.43;81.20;98772.41;5055912;28;20071;-78
2021/04/14 11:07:51;;;;;;;7.25;1.75;;;;;;;9.43;75.43;98755.28;5050281;28;20048;-78
2021/04/14 11:10:23;;;;;;;10.07;1.77;;;;;;;10.35;60.24;98754.31;5049388;28;20048;-78
2021/04/14 11:12:49;;;;;;;14.45;2.50;;;;;;;10.78;57.33;98752.50;5048988;28;20136;-79
2021/04/14 11:15:22;;;;;;;7.32;2.08;;;;;;;12.73;51.19;98757.91;5050446;28;20051;-77
2021/04/14 11:18:03;;;;;;;6.13;1.70;;;;;;;13.15;48.72;98746.75;5049992;28;20488;-77
2021/04/14 11:20:46;;;;;;;10.73;1.70;;;;;;;10.73;50.48;98739.00;5031475;28;20064;-77
2021/04/14 11:23:25;;;;;;;6.03;1.40;;;;;;;10.07;51.18;98747.75;5048086;28;20091;-78
2021/04/14 11:26:12;;;;;;;6.60;1.40;;;;;;;11.09;49.64;98749.13;5050126;28;20121;-77
2021/04/14 11:28:47;;;;;;;7.30;2.60;;;;;;;12.60;44.56;98742.41;5048702;28;20120;-77
2021/04/14 11:31:25;;;;;;;;;;;;;;;13.74;44.61;98749.25;5049331;28;20052;-78
2021/04/14 11:33:52;;;;;;;7.47;1.40;;;;;;;14.02;41.28;98733.59;5065828;28;19932;-77
2021/04/14 11:36:23;;;;;;;5.50;1.60;;;;;;;12.19;45.69;98750.47;5051852;28;20037;-78
2021/04/14 11:39:06;;;;;;;11.20;2.28;;;;;;;9.44;57.78;98751.50;5035827;28;20049;-78
2021/04/14 11:41:38;;;;;;;4.63;1.60;;;;;;;6.69;100.00;98753.03;5060300;28;20136;-78
2021/04/14 11:44:36;;;;;;;8.20;2.00;;;;;;;5.88;100.00;98763.28;5053203;28;20048;-76